Valdosta, GA (31601)

6:09 AM EST on February 07, 2016 (GMT -0500)
Audio Video and Security Inc. | | Change Station
CLOSE
Current Station
Personal Weather Station
Location: Valdosta, GA
Elevation: 220 ft
Nearby Weather Stations
Active Advisory: Flood Warning

Elev 220 ft 30.81 °N, 83.32 °W | Updated 39 seconds ago

Clear
Clear
40.1 °F
Feels Like 40 °F
N
0.0
Wind Variable Wind from East

Today
High -- | Low -- °F
--% Chance of Precip.
Yesterday
High -- | Low -- °F
Precip. -- in
Pressure 30.12 in
Visibility 10.0 miles
Clouds Clear
Windchill 40 °F
Dew Point 37 °F
Humidity 90%
Rainfall 0.00 in
Snow Depth Not available.
7:20 AM 6:14 PM
Waning Crescent, 2% visible
METAR KVLD 071053Z AUTO VRB03KT 10SM CLR 05/01 A3009 RMK AO2 SLP197 T00500011
Pressure 30.12 in
Visibility 10.0 miles
Clouds Clear
Windchill 40 °F
Dew Point 37 °F
Humidity 90%
Rainfall 0.00 in
Snow Depth Not available.
7:20 AM 6:14 PM
Waning Crescent, 2% visible
METAR KVLD 071053Z AUTO VRB03KT 10SM CLR 05/01 A3009 RMK AO2 SLP197 T00500011

10-Day Weather Forecast

Almanac

Astronomy

Feb. 07, 2016 Rise Set
Actual Time
Civil Twilight
Nautical Twilight
Astronomical Twilight
Moon
Length of Visible Light
Length of Day
Tomorrow will be .
, % of the Moon is Illuminated

Today's Extremes

State Highs State Lows

Community

WunderPhotos

Upload Photos

1,891,170 photos uploaded!

WunderBlog® & News

Nearby

Air Quality

  Air Quality AQ Index Pollutant
Not available.

Snow Depth

Station Depth Elevation

Earthquake Activity

City Distance Mag. Time & Date
Minimum magnitude displayed is 2.5.

Coastal Water Temperatures

Place Temperature

Stations

Nearby Weather Stations

Station Location Temp. Windchill Dew Point Humidity Wind Precip. Elev Updated Type
                   

Watches & Warnings

Flood Warning
Issued: 4:51 AM EST Feb. 7, 2016 – National Weather Service

The Flood Warning continues for the Withlacoochee River
near Quitman (us 84).
* Until further notice.
* At 4:00 am Sunday the stage was 103.2 feet.
* Minor flooding is occurring and minor flooding is forecast.
* Flood stage is 102.0 feet.
* Impact: at 106.0 feet: boat ramp at the Clyattville Nankin Road is
flooded.


Lat... Lon 3084 8346 3074 8355 3064 8342 3063 8322 3073 8341 3079 8335






450 am EST sun Feb 7 2016

The Flood Warning continues for the Withlacoochee River above
Valdosta (skipper bridge rd).
* Until Wednesday morning.
* At 4:30 am Sunday the stage was 138.6 feet.
* Minor flooding is occurring and minor flooding is forecast.
* Flood stage is 135.0 feet.
* Forecast: the river has crested at 138.6 feet and will slowly fall
today. The river will fall below flood stage by Wednesday morning.
* The current stage of 138.6 feet is the same as 18.3 feet in the old
datum.
* Impact: at 140.0 feet: Highway 122 east flooded near bridge. Water
intrudes into backyards along winding Way, Park Lane, and
Meadowbrook drive.


Lat... Lon 3103 8330 3084 8346 3079 8335 3100 8319